| time (UTC) | temp F | wind direction | speed MPH | gust MPH | rain 1hr in | rain 24hr in | rain mn in | humidity % | barometer mb |
| 20260510013050 | 53 | 338 | 0.0 | 3.0 | 0.00 | 0.00 | 0.00 | 79 | 1010.1 |
| 20260510011541 | 53 | 288 | 0.0 | 3.0 | 0.00 | 0.00 | 0.00 | 79 | 1010.2 |
| 20260510010037 | 54 | 288 | 2.0 | 4.0 | 0.00 | 0.00 | 0.00 | 78 | 1010.2 |
| 20260510004537 | 53 | 294 | 2.0 | 4.0 | 0.00 | 0.00 | 0.00 | 79 | 1010.3 |
| 20260510003048 | 53 | 309 | 1.0 | 4.0 | 0.00 | 0.00 | 0.00 | 79 | 1010.3 |
| 20260510001534 | 53 | 310 | 0.0 | 4.0 | 0.00 | 0.00 | 0.00 | 78 | 1010.4 |
| 20260510000033 | 53 | 278 | 1.0 | 3.0 | 0.00 | 0.00 | 0.00 | 78 | 1010.4 |
| 20260509234546 | 54 | 270 | 1.0 | 3.0 | 0.00 | 0.00 | 0.00 | 78 | 1010.5 |
| 20260509233041 | 55 | 291 | 1.0 | 3.0 | 0.00 | 0.00 | 0.00 | 76 | 1010.6 |
| 20260509231530 | 55 | 289 | 2.0 | 4.0 | 0.00 | 0.00 | 0.00 | 75 | 1010.7 |
| 20260509230129 | 55 | 280 | 3.0 | 4.0 | 0.00 | 0.00 | 0.00 | 75 | 1010.8 |
| 20260509224526 | 54 | 297 | 4.0 | 7.0 | 0.00 | 0.00 | 0.00 | 77 | 1010.8 |
| 20260509223023 | 53 | 315 | 0.0 | 3.0 | 0.00 | 0.00 | 0.00 | 74 | 1011.0 |
| 20260509221521 | 53 | 208 | 0.0 | 1.0 | 0.00 | 0.00 | 0.00 | 75 | 1011.2 |
| 20260509220020 | 54 | 208 | 0.0 | 0.0 | 0.00 | 0.00 | 0.00 | 74 | 1011.2 |
| 20260509214517 | 55 | 207 | 2.0 | 3.0 | 0.00 | 0.00 | 0.00 | 72 | 1011.3 |
| 20260509213017 | 56 | 207 | 3.0 | 4.0 | 0.00 | 0.00 | 0.00 | 70 | 1011.4 |
| 20260509211516 | 57 | 207 | 0.0 | 0.0 | 0.00 | 0.00 | 0.00 | 69 | 1011.3 |
| 20260509210015 | 58 | 207 | 0.0 | 0.0 | 0.00 | 0.00 | 0.00 | 67 | 1011.3 |
| 20260509204514 | 58 | 207 | 1.0 | 2.0 | 0.00 | 0.00 | 0.00 | 65 | 1011.2 |
| 20260509203013 | 59 | 207 | 0.0 | 2.0 | 0.00 | 0.00 | 0.00 | 65 | 1011.3 |
| 20260509201514 | 59 | 212 | 0.0 | 3.0 | 0.00 | 0.00 | 0.00 | 65 | 1011.4 |
| 20260509200012 | 60 | 188 | 0.0 | 3.0 | 0.00 | 0.00 | 0.00 | 64 | 1011.3 |
| 20260509194516 | 60 | 153 | 1.0 | 2.0 | 0.00 | 0.00 | 0.00 | 65 | 1011.4 |
| 20260509193012 | 61 | 153 | 0.0 | 4.0 | 0.00 | 0.00 | 0.00 | 63 | 1011.4 |
| 20260509191512 | 63 | 162 | 0.0 | 2.0 | 0.00 | 0.00 | 0.00 | 62 | 1011.2 |
| 20260509190017 | 64 | 63 | 0.0 | 2.0 | 0.00 | 0.02 | 0.00 | 60 | 1011.3 |
| 20260509184520 | 66 | 64 | 0.0 | 5.0 | 0.00 | 0.02 | 0.00 | 57 | 1011.3 |
| 20260509183009 | 66 | 35 | 2.0 | 5.0 | 0.00 | 0.02 | 0.00 | 56 | 1011.4 |
| 20260509181511 | 67 | 36 | 2.0 | 5.0 | 0.00 | 0.02 | 0.00 | 55 | 1011.5 |
| 20260509180016 | 68 | 8 | 2.0 | 7.0 | 0.00 | 0.02 | 0.00 | 53 | 1011.4 |
| 20260509174508 | 68 | 5 | 2.0 | 6.0 | 0.00 | 0.02 | 0.00 | 52 | 1011.4 |
| 20260509173013 | 69 | 27 | 1.0 | 8.0 | 0.00 | 0.02 | 0.00 | 52 | 1011.3 |
| 20260509171512 | 70 | 19 | 3.0 | 11.0 | 0.00 | 0.02 | 0.00 | 50 | 1011.2 |
| 20260509170004 | 71 | 9 | 4.0 | 7.0 | 0.00 | 0.02 | 0.00 | 49 | 1011.2 |
| 20260509164503 | 71 | 26 | 1.0 | 7.0 | 0.00 | 0.02 | 0.00 | 51 | 1011.3 |
| 20260509163106 | 71 | 46 | 2.0 | 7.0 | 0.00 | 0.02 | 0.00 | 49 | 1011.4 |
| 20260509161559 | 71 | 30 | 3.0 | 8.0 | 0.00 | 0.02 | 0.00 | 49 | 1011.4 |
| 20260509160056 | 71 | 66 | 2.0 | 8.0 | 0.00 | 0.02 | 0.00 | 48 | 1011.4 |
| 20260509154606 | 71 | 60 | 4.0 | 8.0 | 0.00 | 0.02 | 0.00 | 49 | 1011.6 |
| 20260509153052 | 71 | 68 | 5.0 | 10.0 | 0.00 | 0.02 | 0.00 | 47 | 1011.8 |
| 20260509151553 | 71 | 323 | 3.0 | 7.0 | 0.00 | 0.02 | 0.00 | 49 | 1011.7 |
| 20260509150104 | 72 | 45 | 6.0 | 10.0 | 0.00 | 0.02 | 0.00 | 50 | 1011.7 |
| 20260509144550 | 72 | 32 | 3.0 | 6.0 | 0.00 | 0.02 | 0.00 | 51 | 1011.9 |
| 20260509143049 | 71 | 13 | 7.0 | 12.0 | 0.00 | 0.02 | 0.00 | 52 | 1012.1 |
| 20260509141541 | 71 | 59 | 7.0 | 11.0 | 0.00 | 0.02 | 0.00 | 52 | 1012.6 |
| 20260509140041 | 71 | 88 | 1.0 | 5.0 | 0.00 | 0.02 | 0.00 | 54 | 1012.7 |
| 20260509134535 | 71 | 118 | 3.0 | 6.0 | 0.00 | 0.02 | 0.00 | 56 | 1013.0 |
| 20260509133033 | 70 | 76 | 2.0 | 6.0 | 0.00 | 0.02 | 0.00 | 56 | 1013.3 |
| 20260509131531 | 70 | 45 | 2.0 | 9.0 | 0.00 | 0.02 | 0.00 | 54 | 1013.3 |
| 20260509130030 | 70 | 38 | 1.0 | 7.0 | 0.00 | 0.02 | 0.00 | 54 | 1013.6 |
| 20260509124538 | 70 | 347 | 1.0 | 10.0 | 0.00 | 0.02 | 0.00 | 58 | 1013.5 |
| 20260509123027 | 69 | 11 | 3.0 | 9.0 | 0.00 | 0.02 | 0.00 | 66 | 1013.7 |
| 20260509121537 | 68 | 162 | 0.0 | 8.0 | 0.00 | 0.02 | 0.00 | 63 | 1014.0 |
| 20260509120022 | 69 | 41 | 1.0 | 7.0 | 0.00 | 0.02 | 0.00 | 61 | 1014.2 |
| 20260509114537 | 70 | 291 | 2.0 | 7.0 | 0.00 | 0.02 | 0.00 | 68 | 1014.4 |
| 20260509113015 | 68 | 249 | 1.0 | 7.0 | 0.00 | 0.02 | 0.00 | 67 | 1014.7 |
| 20260509111513 | 69 | 51 | 4.0 | 7.0 | 0.00 | 0.02 | 0.00 | 67 | 1014.9 |
| 20260509110012 | 68 | 82 | 0.0 | 7.0 | 0.00 | 0.02 | 0.00 | 69 | 1015.0 |
| 20260509104505 | 67 | 27 | 1.0 | 3.0 | 0.00 | 0.02 | 0.00 | 70 | 1015.2 |
| 20260509103003 | 66 | 284 | 3.0 | 7.0 | 0.00 | 0.02 | 0.00 | 68 | 1015.4 |
| 20260509101559 | 66 | 349 | 1.0 | 5.0 | 0.00 | 0.02 | 0.00 | 76 | 1015.5 |
| 20260509100057 | 65 | 74 | 1.0 | 4.0 | 0.00 | 0.02 | 0.00 | 73 | 1015.6 |
| 20260509094552 | 64 | 23 | 2.0 | 8.0 | 0.00 | 0.02 | 0.00 | 76 | 1015.7 |
| 20260509093048 | 63 | 66 | 3.0 | 8.0 | 0.00 | 0.02 | 0.00 | 78 | 1015.7 |
| 20260509091545 | 62 | 86 | 3.0 | 7.0 | 0.00 | 0.02 | 0.00 | 80 | 1015.9 |
| 20260509090056 | 62 | 47 | 0.0 | 7.0 | 0.00 | 0.02 | 0.00 | 83 | 1015.9 |
| 20260509084543 | 61 | 17 | 3.0 | 6.0 | 0.00 | 0.02 | 0.00 | 85 | 1016.1 |
| 20260509083045 | 60 | 80 | 2.0 | 7.0 | 0.00 | 0.02 | 0.00 | 86 | 1016.2 |
| 20260509081534 | 59 | 62 | 2.0 | 4.0 | 0.00 | 0.02 | 0.00 | 86 | 1016.3 |
| 20260509080028 | 56 | 21 | 0.0 | 2.0 | 0.00 | 0.02 | 0.00 | 91 | 1016.3 |
| 20260509074531 | 55 | 56 | 0.0 | 3.0 | 0.00 | 0.02 | 0.00 | 93 | 1016.3 |
| 20260509073021 | 55 | 349 | 0.0 | 3.0 | 0.00 | 0.02 | 0.00 | 94 | 1016.4 |
| 20260509071522 | 54 | 77 | 1.0 | 3.0 | 0.00 | 0.02 | 0.00 | 94 | 1016.4 |
| 20260509070017 | 54 | 54 | 2.0 | 3.0 | 0.00 | 0.02 | 0.00 | 95 | 1016.3 |
| 20260509064516 | 53 | 46 | 0.0 | 0.0 | 0.00 | 0.02 | 0.00 | 95 | 1016.3 |
| 20260509063014 | 52 | 318 | 0.0 | 0.0 | 0.00 | 0.02 | 0.00 | 94 | 1016.2 |
| 20260509061514 | 53 | 309 | 0.0 | 0.0 | 0.00 | 0.02 | 0.00 | 92 | 1016.3 |
| 20260509060012 | 53 | 300 | 2.0 | 4.0 | 0.00 | 0.02 | 0.00 | 94 | 1016.2 |
| 20260509054510 | 53 | 316 | 2.0 | 5.0 | 0.00 | 0.02 | 0.00 | 97 | 1016.1 |
| 20260509053012 | 50 | 211 | 1.0 | 2.0 | 0.00 | 0.02 | 0.00 | 98 | 1015.8 |
| 20260509051507 | 47 | 238 | 0.0 | 2.0 | 0.00 | 0.02 | 0.00 | 97 | 1015.7 |
| 20260509050106 | 47 | 228 | 1.0 | 3.0 | 0.00 | 0.02 | 0.00 | 97 | 1015.6 |
| 20260509044606 | 47 | 255 | 2.0 | 3.0 | 0.00 | 0.02 | 0.00 | 97 | 1015.7 |
| 20260509044501 | 47 | 255 | 1.0 | 3.0 | 0.00 | 0.02 | 0.00 | 97 | 1015.7 |
| 20260509043103 | 47 | 256 | 1.0 | 3.0 | 0.00 | 0.02 | 0.00 | 97 | 1015.7 |
| 20260509041557 | 47 | 340 | 1.0 | 3.0 | 0.00 | 0.02 | 0.00 | 97 | 1015.7 |
| 20260509040056 | 47 | 147 | 0.0 | 0.0 | 0.00 | 0.02 | 0.00 | 97 | 1015.5 |
| 20260509034604 | 47 | 103 | 0.0 | 0.0 | 0.00 | 0.02 | 0.00 | 97 | 1015.4 |
| 20260509033107 | 47 | 153 | 0.0 | 0.0 | 0.00 | 0.02 | 0.00 | 97 | 1015.4 |
| 20260509031553 | 46 | 153 | 0.0 | 0.0 | 0.00 | 0.02 | 0.00 | 97 | 1015.5 |
| 20260509030052 | 46 | 148 | 0.0 | 0.0 | 0.00 | 0.02 | 0.00 | 96 | 1015.7 |
| 20260509024601 | 46 | 148 | 0.0 | 0.0 | 0.00 | 0.02 | 0.00 | 96 | 1015.7 |
| 20260509023051 | 46 | 146 | 0.0 | 0.0 | 0.00 | 0.02 | 0.00 | 96 | 1015.7 |
| 20260509021550 | 46 | 199 | 0.0 | 4.0 | 0.00 | 0.02 | 0.00 | 96 | 1015.8 |
| 20260509020049 | 46 | 203 | 0.0 | 2.0 | 0.00 | 0.02 | 0.00 | 95 | 1015.7 |
| 20260509014548 | 46 | 203 | 1.0 | 4.0 | 0.00 | 0.02 | 0.00 | 95 | 1015.7 |